North Fortune — 3EVF5 — position and weather

sailwx.info

Track history (hours):
 
Tides and Currents Weather Stations Pressure Air Temp Water Temp Dewpoint Dewpoint Depression Visibility Wind Speed Wind Dir Waves Ship Positions

North Fortune

Last reported at 2017-Oct-19 13:27 UTC. Time now 2017-Oct-20 05:08 UTC.
Position S 27°38' E 153°56'.

Length 235 m; draft 12.8 m.

Type: Cargo ship. MMSI: 357083000.

Date/timePositionNaut miles runAvg speedWind from/ knotsBaromVisibWave heightAir tempDewpointWater temp
2017-Oct-19 13:27S 27°38' E 153°56'510.1
2017-Oct-19 13:00S 27°43' E 153°56'610.1
2017-Oct-19 12:27S 27°48' E 153°56'610.0
2017-Oct-19 11:49S 27°54' E 153°56'310.0
2017-Oct-19 11:29S 27°58' E 153°56'510.0
2017-Oct-19 11:00S 28°03' E 153°55'5 9.9
2017-Oct-19 10:30S 28°08' E 153°55'5 9.8
2017-Oct-19 10:00S 28°12' E 153°55'510.1
2017-Oct-19 09:30S 28°17' E 153°54'5 9.9
2017-Oct-19 09:00S 28°22' E 153°53'5 9.9
2017-Oct-19 08:31S 28°27' E 153°53'710.1
2017-Oct-19 07:50S 28°34' E 153°52'24510.5
2017-Oct-18 08:25S 32°32' E 152°43'4 9.5
2017-Oct-18 08:01S 32°35' E 152°40'5 9.5
2017-Oct-18 07:30S 32°38' E 152°35'5 9.9
2017-Oct-18 07:00S 32°41' E 152°31'510.2
2017-Oct-18 06:30S 32°44' E 152°26'510.5
2017-Oct-18 06:00S 32°48' E 152°22'510.6
2017-Oct-18 05:30S 32°51' E 152°17'510.5
2017-Oct-18 05:00S 32°55' E 152°13'510.2
2017-Oct-18 04:30S 32°57' E 152°07'611.2
2017-Oct-18 04:00S 32°57' E 152°00'611.2
2017-Oct-18 03:30S 32°57' E 151°54'4 8.1
2017-Oct-18 03:00S 32°55' E 151°49'2 4.5
2017-Oct-18 02:30S 32°55' E 151°46'2 0.7
2017-Oct-17 23:21S 32°53' E 151°45'0 0.0
2017-Oct-17 21:24S 32°53' E 151°45'0 0.0
2017-Oct-17 20:54S 32°53' E 151°45'0 0.0
2017-Oct-17 20:30S 32°53' E 151°45'0 0.0
2017-Oct-17 19:30S 32°53' E 151°45'0 0.0
2017-Oct-17 19:00S 32°53' E 151°45'0 0.0
2017-Oct-17 18:30S 32°53' E 151°45'0 0.0
2017-Oct-17 18:00S 32°53' E 151°45'0 0.0
2017-Oct-17 16:21S 32°53' E 151°45'0 0.0
2017-Oct-17 12:06S 32°53' E 151°45'0 0.0
2017-Oct-17 11:51S 32°53' E 151°45'0 0.0
2017-Oct-17 11:30S 32°53' E 151°45'0 0.0
2017-Oct-17 11:00S 32°53' E 151°45'0 0.0
2017-Oct-17 10:30S 32°53' E 151°45'0 0.0
2017-Oct-17 10:00S 32°53' E 151°45'0 0.0
2017-Oct-17 09:30S 32°53' E 151°45'0 0.0
2017-Oct-17 09:00S 32°53' E 151°45'1 1.7
2017-Oct-17 08:31S 32°54' E 151°46'2 3.9
2017-Oct-17 08:00S 32°55' E 151°48'4 9.0
2017-Oct-17 07:30S 32°58' E 151°52'3 5.1
2017-Oct-17 07:00S 32°60' E 151°53'2 4.2
2017-Oct-17 06:30S 32°60' E 151°56'4 7.1
2017-Oct-17 06:00S 32°56' E 151°58'2 4.5
2017-Oct-17 05:30S 32°56' E 152°00'3 6.3
2017-Oct-17 05:00S 32°55' E 152°04'3 5.8
2017-Oct-17 04:30S 32°54' E 152°07'4 8.7
2017-Oct-17 04:00S 32°53' E 152°12'713.8
2017-Oct-17 03:30S 32°49' E 152°18'714.6
2017-Oct-17 03:01S 32°44' E 152°25'714.9
2017-Oct-17 02:30S 32°38' E 152°31'1415.0
2017-Oct-17 01:35S 32°28' E 152°42'214.3
2017-Oct-17 01:26S 32°26' E 152°43'24213.7
2017-Oct-16 07:44S 28°31' E 153°48'413.6
2017-Oct-16 07:25S 28°26' E 153°48'613.8
2017-Oct-16 07:00S 28°21' E 153°48'713.6
2017-Oct-16 06:30S 28°14' E 153°48'613.0
2017-Oct-16 06:00S 28°07' E 153°48'612.2
2017-Oct-16 05:30S 28°01' E 153°48'611.5
2017-Oct-16 05:00S 27°55' E 153°48'611.2
2017-Oct-16 04:30S 27°50' E 153°48'611.4
2017-Oct-16 04:00S 27°44' E 153°48'711.3
2017-Oct-16 03:25S 27°37' E 153°48'  
Track history (hours):
 
Tides and Currents Weather Stations Pressure Air Temp Water Temp Dewpoint Dewpoint Depression Visibility Wind Speed Wind Dir Waves Ship Positions

North Fortune

Last reported at 2017-Oct-19 13:27 UTC. Time now 2017-Oct-20 05:08 UTC.
Position S 27°38' E 153°56'.

Length 235 m; draft 12.8 m.

Type: Cargo ship. MMSI: 357083000.

Date/timePositionNaut miles runAvg speedWind from/ knotsBaromVisibWave heightAir tempDewpointWater temp
2017-Oct-19 13:27S 27°38' E 153°56'510.1
2017-Oct-19 13:00S 27°43' E 153°56'610.1
2017-Oct-19 12:27S 27°48' E 153°56'610.0
2017-Oct-19 11:49S 27°54' E 153°56'310.0
2017-Oct-19 11:29S 27°58' E 153°56'510.0
2017-Oct-19 11:00S 28°03' E 153°55'5 9.9
2017-Oct-19 10:30S 28°08' E 153°55'5 9.8
2017-Oct-19 10:00S 28°12' E 153°55'510.1
2017-Oct-19 09:30S 28°17' E 153°54'5 9.9
2017-Oct-19 09:00S 28°22' E 153°53'5 9.9
2017-Oct-19 08:31S 28°27' E 153°53'710.1
2017-Oct-19 07:50S 28°34' E 153°52'24510.5
2017-Oct-18 08:25S 32°32' E 152°43'4 9.5
2017-Oct-18 08:01S 32°35' E 152°40'5 9.5
2017-Oct-18 07:30S 32°38' E 152°35'5 9.9
2017-Oct-18 07:00S 32°41' E 152°31'510.2
2017-Oct-18 06:30S 32°44' E 152°26'510.5
2017-Oct-18 06:00S 32°48' E 152°22'510.6
2017-Oct-18 05:30S 32°51' E 152°17'510.5
2017-Oct-18 05:00S 32°55' E 152°13'510.2
2017-Oct-18 04:30S 32°57' E 152°07'611.2
2017-Oct-18 04:00S 32°57' E 152°00'611.2
2017-Oct-18 03:30S 32°57' E 151°54'4 8.1
2017-Oct-18 03:00S 32°55' E 151°49'2 4.5
2017-Oct-18 02:30S 32°55' E 151°46'2 0.7
2017-Oct-17 23:21S 32°53' E 151°45'0 0.0
2017-Oct-17 21:24S 32°53' E 151°45'0 0.0
2017-Oct-17 20:54S 32°53' E 151°45'0 0.0
2017-Oct-17 20:30S 32°53' E 151°45'0 0.0
2017-Oct-17 19:30S 32°53' E 151°45'0 0.0
2017-Oct-17 19:00S 32°53' E 151°45'0 0.0
2017-Oct-17 18:30S 32°53' E 151°45'0 0.0
2017-Oct-17 18:00S 32°53' E 151°45'0 0.0
2017-Oct-17 16:21S 32°53' E 151°45'0 0.0
2017-Oct-17 12:06S 32°53' E 151°45'0 0.0
2017-Oct-17 11:51S 32°53' E 151°45'0 0.0
2017-Oct-17 11:30S 32°53' E 151°45'0 0.0
2017-Oct-17 11:00S 32°53' E 151°45'0 0.0
2017-Oct-17 10:30S 32°53' E 151°45'0 0.0
2017-Oct-17 10:00S 32°53' E 151°45'0 0.0
2017-Oct-17 09:30S 32°53' E 151°45'0 0.0
2017-Oct-17 09:00S 32°53' E 151°45'1 1.7
2017-Oct-17 08:31S 32°54' E 151°46'2 3.9
2017-Oct-17 08:00S 32°55' E 151°48'4 9.0
2017-Oct-17 07:30S 32°58' E 151°52'3 5.1
2017-Oct-17 07:00S 32°60' E 151°53'2 4.2
2017-Oct-17 06:30S 32°60' E 151°56'4 7.1
2017-Oct-17 06:00S 32°56' E 151°58'2 4.5
2017-Oct-17 05:30S 32°56' E 152°00'3 6.3
2017-Oct-17 05:00S 32°55' E 152°04'3 5.8
2017-Oct-17 04:30S 32°54' E 152°07'4 8.7
2017-Oct-17 04:00S 32°53' E 152°12'713.8
2017-Oct-17 03:30S 32°49' E 152°18'714.6
2017-Oct-17 03:01S 32°44' E 152°25'714.9
2017-Oct-17 02:30S 32°38' E 152°31'1415.0
2017-Oct-17 01:35S 32°28' E 152°42'214.3
2017-Oct-17 01:26S 32°26' E 152°43'24213.7
2017-Oct-16 07:44S 28°31' E 153°48'413.6
2017-Oct-16 07:25S 28°26' E 153°48'613.8
2017-Oct-16 07:00S 28°21' E 153°48'713.6
2017-Oct-16 06:30S 28°14' E 153°48'613.0
2017-Oct-16 06:00S 28°07' E 153°48'612.2
2017-Oct-16 05:30S 28°01' E 153°48'611.5
2017-Oct-16 05:00S 27°55' E 153°48'611.2
2017-Oct-16 04:30S 27°50' E 153°48'611.4
2017-Oct-16 04:00S 27°44' E 153°48'711.3
2017-Oct-16 03:25S 27°37' E 153°48'  

Dump ship's entire track history